AirNav   Advertisement
 
 943 users online  

TA04 Sheriff Department Heliport
Waco, Texas, USA

GOING TO WACO?


FAA INFORMATION EFFECTIVE 20 JULY 2017

Location

FAA Identifier: TA04
Lat/Long: 31-32-53.6000N / 097-04-43.9980W
31-32.893333N / 097-04.733300W
31.5482222 / -97.0788883
(estimated)
Elevation: 385 ft. / 117 m (estimated)
Variation: 07E (1985)
Time zone: UTC -5 (UTC -6 during Standard Time)
Zip code: 76705

Heliport Operations

Heliport use: Private use. Permission required prior to landing
Activation date: 11/1988
Control tower: no
ARTCC: FORT WORTH CENTER
FSS: FORT WORTH FLIGHT SERVICE STATION
Attendance: CONTINUOUS
Wind indicator: yes
Segmented circle: no

Heliport Communications

WX AWOS-3 at CNW (5 nm N): 134.225 (254-867-3880)
WX ASOS at ACT (9 nm NW): PHONE 254-759-3065
WX AWOS-3PT at PWG (13 nm W): 135.525 (254-848-4581)

Nearby radio navigation aids

VOR radial/distance  VOR name  Freq  Var
ACTr116/11.9WACO VORTAC115.3009E
TPLr032/27.0TEMPLE VOR/DME110.4009E
GNLr261/27.2GROESBECK VOR/DME108.8005E

 
NDB name  Hdg/Dist  Freq  Var  ID
ROBINSON343/2.740007EROB .-. --- -...
MEXIA255/29.532904ELXY .-.. -..- -.--

Heliport Services

Runway Information

Helipad H1

Dimensions: 50 x 50 ft. / 15 x 15 m
Surface: turf
Operational restrictions: WITHIN A 200' X 200' LANDING/TAKEOFF AREA.
Traffic pattern: leftleft

Heliport Ownership and Management from official FAA records

Ownership: Publicly-owned
Owner: MC LELLAN COUNTY SHERIFF DEPT
130 COUNTY RECORDS BLDG
WACO, TX 76701
Phone 817-757-5000
Manager: DAN WEYENBERG
219 NO. 6TH STREET
WACO, TX 76701
Phone 817-757-5111

Heliport Operational Statistics

Aircraft based on the field: 1
Helicopters: 1
    

Instrument Procedures

There are no published instrument procedures at TA04.

Some nearby airports with instrument procedures:

KCNW - TSTC Waco Airport (5 nm N)
KACT - Waco Regional Airport (9 nm NW)
KPWG - Mc Gregor Executive Airport (13 nm W)
T15 - Marlin Airport (17 nm SE)
KTPL - Draughon-Miller Central Texas Regional Airport (29 nm SW)
 
Loc | Ops | Rwys | IFR | FBO | Links
Com | Nav | Svcs | Stats | Notes


 
Area around TA04 (Sheriff Department Heliport)
 
Road maps at: MapQuest Bing Google
 
Aerial photo
No photo
 
Sectional chart

 
Airport distance calculator
Flying to Sheriff Department Heliport? Find the distance to fly.

From to TA04

Sunrise and sunset
Times for 27-Jul-2017
 Local
(UTC-5)
 Zulu
(UTC)
Morning civil twilight06:1511:15
Sunrise06:4211:42
Sunset20:2701:27
Evening civil twilight20:5401:54

Current date and time
Zulu (UTC)  27-Jul-2017 23:49:55
Local (UTC-5)  27-Jul-2017 18:49:55
 
METAR
KCNW 
5nm N 
272255Z 15005KT 10SM SKC 38/16 A2992
KACT 
9nm NW 
272251Z 15008KT 10SM CLR 38/18 A2991 RMK AO2 SLP120 T03780178 $
KPWG 
13nm W 
272256Z AUTO 16009KT 10SM CLR 38/19 A2992 RMK AO2 SLP131 T03830189 $
TAF
KACT 
9nm NW 
272050Z 2720/2818 17010KT P6SM BKN300 FM281300 22007KT P6SM SCT300
NOTAMs
Click for the latest NOTAMs
NOTAMs are issued by the DoD/FAA and will open in a separate window not controlled by AirNav.

 

 
 

Would you like to see your business listed on this page?

 If your business provides an interesting product or service to pilots, flight crews, aircraft, or users of the Sheriff Department Heliport, you should consider listing it here.  To start the listing process, click on the button below
 
Add a business
 

Other Pages about Sheriff Department Heliport

Update a link
 
Copyright © AirNav, LLC. All rights reserved. Privacy Policy  Contact